Main page
METAR-TAF:

METAR-TAF

Airports :

Gibraltar International Airport

Gibraltar, Gibraltar

latitude: 36-09N, longitude: 005-21W, elevation: 5 m

Current weather observation

The report was made 31 minutes ago, at 20:50 UTC
Wind 9 kt from the East/Northeast
Temperature 16°C
Humidity 82%
Pressure 1012 hPa
Visibility 10 km or more

METAR: LXGB 202050Z AUTO 07009KT 9999 // OVC031/// 16/13 Q1012

Time: 23:21 (21:21 UTC)

Forecast

The report was made 4 hours and 39 minutes ago, at 16:42 UTC
Forecast valid from 20 at 18 UTC to 20 at 22 UTC
Wind 6 kt from the South/Southeast
Visibility 10 km or more
Few clouds at a height of 3500 ft
Scattered clouds at a height of 5000 ft

TAF: LXGB 201642Z 2018/2022 15006KT 9999 FEW035 SCT050

Weather observations and forecasts of more than 4000 airports (METAR and TAF reports).

The available stations are represented by yellow and red dots on the map.

Hover mouse over dot to see the name of the station.

Then click to see weather observations and forecasts.

To change the map : click on the green buttons with a black cross to zoom in, on the green button with a dash to zoom out, or on the green arrows for adjacent maps.


METAR-TAF: